Terminal Aerodrome Forecast
Issued by NWS Lake Charles, LA

Home | Current Version | Previous Version | Text Only | Print | Product List | Glossary On
Versions: 1 2 3 4 5 6 7 8 9 10 11 12 13 14
000
FTUS44 KLCH 300520
TAFAEX
TAF
KAEX 300520Z 3006/0106 16015G22KT 6SM -SHRA BR VCTS OVC025CB
      TEMPO 3010/3013 VRB20G30KT 1SM +TSRA BKN008CB OVC015
     FM301300 31012G18KT 6SM -SHRA BR OVC025
     FM301600 30010KT P6SM VCSH SCT025 BKN050
     FM301900 30010KT P6SM SCT200
     FM010000 32006KT P6SM SKC=

USA.gov is the U.S. government's official web portal to all federal, state and local government web resources and services.